sensor_id;sensor_type;location;lat;lon;timestamp;P1;durP1;ratioP1;P2;durP2;ratioP2
8187;SDS011;4135;49.184;9.722;2022-08-04T00:08:32;2.08;;;1.80;;
8187;SDS011;4135;49.184;9.722;2022-08-04T00:11:09;3.88;;;2.20;;
8187;SDS011;4135;49.184;9.722;2022-08-04T00:13:42;3.55;;;2.00;;
8187;SDS011;4135;49.184;9.722;2022-08-04T00:16:18;5.50;;;2.15;;
8187;SDS011;4135;49.184;9.722;2022-08-04T00:18:57;4.40;;;1.58;;
8187;SDS011;4135;49.184;9.722;2022-08-04T00:21:33;2.05;;;1.73;;
8187;SDS011;4135;49.184;9.722;2022-08-04T00:24:06;3.38;;;2.13;;
8187;SDS011;4135;49.184;9.722;2022-08-04T00:26:37;4.55;;;2.05;;
8187;SDS011;4135;49.184;9.722;2022-08-04T00:29:08;1.65;;;1.45;;
8187;SDS011;4135;49.184;9.722;2022-08-04T00:31:40;3.53;;;1.92;;
8187;SDS011;4135;49.184;9.722;2022-08-04T00:34:11;2.75;;;1.67;;
8187;SDS011;4135;49.184;9.722;2022-08-04T00:36:43;3.25;;;2.17;;
8187;SDS011;4135;49.184;9.722;2022-08-04T00:39:13;1.83;;;1.30;;
8187;SDS011;4135;49.184;9.722;2022-08-04T00:50:26;2.63;;;1.65;;
8187;SDS011;4135;49.184;9.722;2022-08-04T00:53:19;4.47;;;1.70;;
8187;SDS011;4135;49.184;9.722;2022-08-04T01:16:21;4.43;;;1.88;;
8187;SDS011;4135;49.184;9.722;2022-08-04T01:24:25;2.58;;;1.92;;
8187;SDS011;4135;49.184;9.722;2022-08-04T01:27:01;5.35;;;2.40;;
8187;SDS011;4135;49.184;9.722;2022-08-04T01:29:46;2.90;;;2.10;;
8187;SDS011;4135;49.184;9.722;2022-08-04T01:32:20;4.93;;;2.45;;
8187;SDS011;4135;49.184;9.722;2022-08-04T01:35:12;7.30;;;2.20;;
8187;SDS011;4135;49.184;9.722;2022-08-04T01:38:08;4.10;;;2.33;;
8187;SDS011;4135;49.184;9.722;2022-08-04T01:40:45;2.60;;;1.50;;
8187;SDS011;4135;49.184;9.722;2022-08-04T01:43:16;3.05;;;1.77;;
8187;SDS011;4135;49.184;9.722;2022-08-04T01:45:49;2.80;;;1.98;;
8187;SDS011;4135;49.184;9.722;2022-08-04T01:48:23;1.73;;;1.63;;
8187;SDS011;4135;49.184;9.722;2022-08-04T01:50:58;3.10;;;1.80;;
8187;SDS011;4135;49.184;9.722;2022-08-04T01:53:33;3.58;;;1.80;;
8187;SDS011;4135;49.184;9.722;2022-08-04T01:56:04;4.75;;;2.17;;
8187;SDS011;4135;49.184;9.722;2022-08-04T01:58:36;5.03;;;2.20;;
8187;SDS011;4135;49.184;9.722;2022-08-04T02:01:09;5.28;;;1.90;;
8187;SDS011;4135;49.184;9.722;2022-08-04T02:03:40;12.50;;;2.28;;
8187;SDS011;4135;49.184;9.722;2022-08-04T02:11:38;5.10;;;2.38;;
8187;SDS011;4135;49.184;9.722;2022-08-04T02:17:09;5.15;;;2.80;;
8187;SDS011;4135;49.184;9.722;2022-08-04T02:22:58;3.03;;;2.42;;
8187;SDS011;4135;49.184;9.722;2022-08-04T02:25:31;3.85;;;2.60;;
8187;SDS011;4135;49.184;9.722;2022-08-04T02:33:56;3.65;;;2.05;;
8187;SDS011;4135;49.184;9.722;2022-08-04T02:36:39;3.72;;;2.30;;
8187;SDS011;4135;49.184;9.722;2022-08-04T02:39:10;4.90;;;2.80;;
8187;SDS011;4135;49.184;9.722;2022-08-04T02:41:41;2.38;;;2.20;;
8187;SDS011;4135;49.184;9.722;2022-08-04T02:44:19;3.95;;;2.38;;
8187;SDS011;4135;49.184;9.722;2022-08-04T02:46:53;7.32;;;2.72;;
8187;SDS011;4135;49.184;9.722;2022-08-04T02:49:23;4.22;;;2.75;;
8187;SDS011;4135;49.184;9.722;2022-08-04T02:51:54;3.70;;;2.35;;
8187;SDS011;4135;49.184;9.722;2022-08-04T02:54:31;2.17;;;1.92;;
8187;SDS011;4135;49.184;9.722;2022-08-04T02:57:07;2.67;;;2.20;;
8187;SDS011;4135;49.184;9.722;2022-08-04T03:02:28;2.85;;;2.08;;
8187;SDS011;4135;49.184;9.722;2022-08-04T03:05:15;2.97;;;2.65;;
8187;SDS011;4135;49.184;9.722;2022-08-04T03:08:06;4.68;;;2.70;;
8187;SDS011;4135;49.184;9.722;2022-08-04T03:14:11;4.68;;;2.97;;
8187;SDS011;4135;49.184;9.722;2022-08-04T03:31:46;4.93;;;2.78;;
8187;SDS011;4135;49.184;9.722;2022-08-04T03:49:09;6.85;;;2.35;;
8187;SDS011;4135;49.184;9.722;2022-08-04T03:51:53;3.63;;;2.00;;
8187;SDS011;4135;49.184;9.722;2022-08-04T03:55:08;3.72;;;3.08;;
8187;SDS011;4135;49.184;9.722;2022-08-04T04:00:17;4.65;;;2.42;;
8187;SDS011;4135;49.184;9.722;2022-08-04T04:23:14;3.63;;;2.30;;
8187;SDS011;4135;49.184;9.722;2022-08-04T04:28:44;3.20;;;2.15;;
8187;SDS011;4135;49.184;9.722;2022-08-04T04:37:16;3.70;;;2.30;;
8187;SDS011;4135;49.184;9.722;2022-08-04T04:43:02;10.48;;;2.47;;
8187;SDS011;4135;49.184;9.722;2022-08-04T04:48:45;4.07;;;2.97;;
8187;SDS011;4135;49.184;9.722;2022-08-04T04:57:09;5.43;;;2.15;;
8187;SDS011;4135;49.184;9.722;2022-08-04T04:59:59;8.18;;;2.30;;
8187;SDS011;4135;49.184;9.722;2022-08-04T05:14:04;5.53;;;2.80;;
8187;SDS011;4135;49.184;9.722;2022-08-04T05:16:37;2.60;;;2.50;;
8187;SDS011;4135;49.184;9.722;2022-08-04T05:19:32;2.75;;;2.55;;
8187;SDS011;4135;49.184;9.722;2022-08-04T05:25:03;5.20;;;2.60;;
8187;SDS011;4135;49.184;9.722;2022-08-04T05:27:48;4.72;;;2.80;;
8187;SDS011;4135;49.184;9.722;2022-08-04T05:30:23;7.05;;;3.80;;
8187;SDS011;4135;49.184;9.722;2022-08-04T05:32:59;9.23;;;2.75;;
8187;SDS011;4135;49.184;9.722;2022-08-04T05:35:36;9.38;;;2.67;;
8187;SDS011;4135;49.184;9.722;2022-08-04T05:38:13;4.47;;;2.80;;
8187;SDS011;4135;49.184;9.722;2022-08-04T05:40:46;5.28;;;3.00;;
8187;SDS011;4135;49.184;9.722;2022-08-04T05:43:17;4.43;;;2.90;;
8187;SDS011;4135;49.184;9.722;2022-08-04T05:45:48;3.97;;;2.67;;
8187;SDS011;4135;49.184;9.722;2022-08-04T05:48:19;3.17;;;2.38;;
8187;SDS011;4135;49.184;9.722;2022-08-04T05:50:49;3.40;;;2.55;;
8187;SDS011;4135;49.184;9.722;2022-08-04T05:53:20;2.10;;;1.88;;
8187;SDS011;4135;49.184;9.722;2022-08-04T05:55:50;4.82;;;2.70;;
8187;SDS011;4135;49.184;9.722;2022-08-04T05:58:20;2.92;;;2.10;;
8187;SDS011;4135;49.184;9.722;2022-08-04T06:00:50;6.30;;;2.45;;
8187;SDS011;4135;49.184;9.722;2022-08-04T06:03:22;6.68;;;2.63;;
8187;SDS011;4135;49.184;9.722;2022-08-04T06:05:53;2.58;;;1.90;;
8187;SDS011;4135;49.184;9.722;2022-08-04T06:08:25;2.85;;;2.38;;
8187;SDS011;4135;49.184;9.722;2022-08-04T06:10:55;2.80;;;1.83;;
8187;SDS011;4135;49.184;9.722;2022-08-04T06:13:32;3.03;;;2.30;;
8187;SDS011;4135;49.184;9.722;2022-08-04T06:16:10;2.97;;;2.33;;
8187;SDS011;4135;49.184;9.722;2022-08-04T06:18:42;2.45;;;2.10;;
8187;SDS011;4135;49.184;9.722;2022-08-04T06:21:18;2.88;;;2.47;;
8187;SDS011;4135;49.184;9.722;2022-08-04T06:23:50;3.20;;;2.53;;
8187;SDS011;4135;49.184;9.722;2022-08-04T06:26:23;3.95;;;3.00;;
8187;SDS011;4135;49.184;9.722;2022-08-04T06:28:54;5.28;;;2.72;;
8187;SDS011;4135;49.184;9.722;2022-08-04T06:31:25;6.00;;;2.35;;
8187;SDS011;4135;49.184;9.722;2022-08-04T06:34:14;4.13;;;2.55;;
8187;SDS011;4135;49.184;9.722;2022-08-04T06:36:44;4.10;;;2.55;;
8187;SDS011;4135;49.184;9.722;2022-08-04T06:39:15;9.25;;;2.90;;
8187;SDS011;4135;49.184;9.722;2022-08-04T06:41:46;6.05;;;3.20;;
8187;SDS011;4135;49.184;9.722;2022-08-04T06:44:17;6.68;;;2.35;;
8187;SDS011;4135;49.184;9.722;2022-08-04T06:46:49;6.38;;;2.55;;
8187;SDS011;4135;49.184;9.722;2022-08-04T06:49:20;7.07;;;2.60;;
8187;SDS011;4135;49.184;9.722;2022-08-04T06:51:51;3.78;;;2.17;;
8187;SDS011;4135;49.184;9.722;2022-08-04T06:54:22;3.33;;;2.83;;
8187;SDS011;4135;49.184;9.722;2022-08-04T06:56:52;3.85;;;2.63;;
8187;SDS011;4135;49.184;9.722;2022-08-04T06:59:23;5.82;;;2.83;;
8187;SDS011;4135;49.184;9.722;2022-08-04T07:01:54;5.38;;;2.28;;
8187;SDS011;4135;49.184;9.722;2022-08-04T07:04:24;3.15;;;2.42;;
8187;SDS011;4135;49.184;9.722;2022-08-04T07:06:54;6.70;;;2.47;;
8187;SDS011;4135;49.184;9.722;2022-08-04T07:09:23;6.25;;;2.58;;
8187;SDS011;4135;49.184;9.722;2022-08-04T07:11:53;6.53;;;2.15;;
8187;SDS011;4135;49.184;9.722;2022-08-04T07:14:23;5.60;;;2.60;;
8187;SDS011;4135;49.184;9.722;2022-08-04T07:16:54;7.10;;;2.25;;
8187;SDS011;4135;49.184;9.722;2022-08-04T07:19:26;3.90;;;2.28;;
8187;SDS011;4135;49.184;9.722;2022-08-04T07:21:55;7.30;;;2.47;;
8187;SDS011;4135;49.184;9.722;2022-08-04T07:24:32;8.07;;;2.15;;
8187;SDS011;4135;49.184;9.722;2022-08-04T07:27:04;3.88;;;2.13;;
8187;SDS011;4135;49.184;9.722;2022-08-04T07:29:34;2.72;;;2.20;;
8187;SDS011;4135;49.184;9.722;2022-08-04T07:32:04;3.63;;;1.92;;
8187;SDS011;4135;49.184;9.722;2022-08-04T07:34:34;5.70;;;3.00;;
8187;SDS011;4135;49.184;9.722;2022-08-04T07:37:06;4.05;;;2.78;;
8187;SDS011;4135;49.184;9.722;2022-08-04T07:39:35;3.30;;;2.10;;
8187;SDS011;4135;49.184;9.722;2022-08-04T07:42:05;2.47;;;2.28;;
8187;SDS011;4135;49.184;9.722;2022-08-04T07:44:35;2.75;;;2.20;;
8187;SDS011;4135;49.184;9.722;2022-08-04T07:47:06;4.60;;;2.55;;
8187;SDS011;4135;49.184;9.722;2022-08-04T07:49:36;4.53;;;2.33;;
8187;SDS011;4135;49.184;9.722;2022-08-04T07:52:06;4.60;;;1.98;;
8187;SDS011;4135;49.184;9.722;2022-08-04T07:54:36;4.03;;;2.13;;
8187;SDS011;4135;49.184;9.722;2022-08-04T07:57:07;3.00;;;2.20;;
8187;SDS011;4135;49.184;9.722;2022-08-04T07:59:36;2.85;;;1.98;;
8187;SDS011;4135;49.184;9.722;2022-08-04T08:02:06;4.78;;;2.63;;
8187;SDS011;4135;49.184;9.722;2022-08-04T08:04:36;7.57;;;2.45;;
8187;SDS011;4135;49.184;9.722;2022-08-04T08:07:06;3.80;;;2.20;;
8187;SDS011;4135;49.184;9.722;2022-08-04T08:09:35;3.97;;;1.67;;
8187;SDS011;4135;49.184;9.722;2022-08-04T08:12:06;4.68;;;1.88;;
8187;SDS011;4135;49.184;9.722;2022-08-04T08:14:37;3.17;;;1.42;;
8187;SDS011;4135;49.184;9.722;2022-08-04T08:17:07;2.45;;;1.77;;
8187;SDS011;4135;49.184;9.722;2022-08-04T08:19:37;5.10;;;2.55;;
8187;SDS011;4135;49.184;9.722;2022-08-04T08:22:06;3.60;;;1.98;;
8187;SDS011;4135;49.184;9.722;2022-08-04T08:24:38;2.25;;;1.33;;
8187;SDS011;4135;49.184;9.722;2022-08-04T08:27:08;7.53;;;2.17;;
8187;SDS011;4135;49.184;9.722;2022-08-04T08:29:37;4.15;;;1.77;;
8187;SDS011;4135;49.184;9.722;2022-08-04T08:32:08;2.97;;;1.80;;
8187;SDS011;4135;49.184;9.722;2022-08-04T08:34:41;4.20;;;2.20;;
8187;SDS011;4135;49.184;9.722;2022-08-04T08:43:18;5.50;;;1.50;;
8187;SDS011;4135;49.184;9.722;2022-08-04T08:48:54;6.97;;;1.70;;
8187;SDS011;4135;49.184;9.722;2022-08-04T08:57:20;2.92;;;1.60;;
8187;SDS011;4135;49.184;9.722;2022-08-04T09:00:08;3.72;;;1.73;;
8187;SDS011;4135;49.184;9.722;2022-08-04T09:11:12;1.42;;;1.23;;
8187;SDS011;4135;49.184;9.722;2022-08-04T09:13:47;1.33;;;0.98;;
8187;SDS011;4135;49.184;9.722;2022-08-04T09:18:53;5.07;;;1.33;;
8187;SDS011;4135;49.184;9.722;2022-08-04T09:24:21;2.35;;;1.20;;
8187;SDS011;4135;49.184;9.722;2022-08-04T09:27:12;1.90;;;1.23;;
8187;SDS011;4135;49.184;9.722;2022-08-04T09:29:48;2.78;;;1.25;;
8187;SDS011;4135;49.184;9.722;2022-08-04T09:38:36;1.00;;;0.90;;
8187;SDS011;4135;49.184;9.722;2022-08-04T09:46:39;1.58;;;0.85;;
8187;SDS011;4135;49.184;9.722;2022-08-04T09:49:28;1.33;;;1.08;;
8187;SDS011;4135;49.184;9.722;2022-08-04T09:57:52;1.63;;;1.23;;
8187;SDS011;4135;49.184;9.722;2022-08-04T10:00:33;1.35;;;1.20;;
8187;SDS011;4135;49.184;9.722;2022-08-04T10:03:09;1.52;;;0.98;;
8187;SDS011;4135;49.184;9.722;2022-08-04T10:05:48;1.25;;;1.20;;
8187;SDS011;4135;49.184;9.722;2022-08-04T10:08:51;1.70;;;1.00;;
8187;SDS011;4135;49.184;9.722;2022-08-04T10:17:23;1.00;;;0.95;;
8187;SDS011;4135;49.184;9.722;2022-08-04T10:23:14;1.73;;;1.10;;
8187;SDS011;4135;49.184;9.722;2022-08-04T10:29:06;1.15;;;0.98;;
8187;SDS011;4135;49.184;9.722;2022-08-04T10:32:14;1.05;;;1.02;;
8187;SDS011;4135;49.184;9.722;2022-08-04T10:34:58;2.38;;;1.20;;
8187;SDS011;4135;49.184;9.722;2022-08-04T10:40:16;1.25;;;1.00;;
8187;SDS011;4135;49.184;9.722;2022-08-04T10:43:29;2.00;;;1.00;;
8187;SDS011;4135;49.184;9.722;2022-08-04T10:46:11;1.20;;;1.02;;
8187;SDS011;4135;49.184;9.722;2022-08-04T10:51:49;1.35;;;0.93;;
8187;SDS011;4135;49.184;9.722;2022-08-04T10:54:26;3.22;;;1.20;;
8187;SDS011;4135;49.184;9.722;2022-08-04T10:57:07;1.77;;;1.00;;
8187;SDS011;4135;49.184;9.722;2022-08-04T10:59:52;2.85;;;1.20;;
8187;SDS011;4135;49.184;9.722;2022-08-04T11:02:30;2.53;;;1.58;;
8187;SDS011;4135;49.184;9.722;2022-08-04T11:05:13;1.45;;;1.10;;
8187;SDS011;4135;49.184;9.722;2022-08-04T11:07:54;3.00;;;1.33;;
8187;SDS011;4135;49.184;9.722;2022-08-04T11:10:31;1.35;;;0.93;;
8187;SDS011;4135;49.184;9.722;2022-08-04T11:13:05;1.88;;;1.20;;
8187;SDS011;4135;49.184;9.722;2022-08-04T11:15:41;4.45;;;1.20;;
8187;SDS011;4135;49.184;9.722;2022-08-04T11:21:05;2.53;;;1.17;;
8187;SDS011;4135;49.184;9.722;2022-08-04T11:23:53;1.27;;;1.10;;
8187;SDS011;4135;49.184;9.722;2022-08-04T11:29:25;2.88;;;1.38;;
8187;SDS011;4135;49.184;9.722;2022-08-04T11:32:19;1.55;;;1.25;;
8187;SDS011;4135;49.184;9.722;2022-08-04T11:34:54;3.00;;;1.40;;
8187;SDS011;4135;49.184;9.722;2022-08-04T11:37:35;1.33;;;1.08;;
8187;SDS011;4135;49.184;9.722;2022-08-04T11:42:51;1.67;;;1.17;;
8187;SDS011;4135;49.184;9.722;2022-08-04T11:45:40;2.70;;;1.42;;
8187;SDS011;4135;49.184;9.722;2022-08-04T11:48:26;1.75;;;1.30;;
8187;SDS011;4135;49.184;9.722;2022-08-04T11:51:02;2.40;;;1.40;;
8187;SDS011;4135;49.184;9.722;2022-08-04T11:53:33;2.63;;;1.38;;
8187;SDS011;4135;49.184;9.722;2022-08-04T11:56:09;2.70;;;1.00;;
8187;SDS011;4135;49.184;9.722;2022-08-04T11:58:42;1.50;;;1.08;;
8187;SDS011;4135;49.184;9.722;2022-08-04T12:04:12;2.55;;;1.25;;
8187;SDS011;4135;49.184;9.722;2022-08-04T12:07:12;1.48;;;1.38;;
8187;SDS011;4135;49.184;9.722;2022-08-04T12:12:58;2.15;;;1.65;;
8187;SDS011;4135;49.184;9.722;2022-08-04T12:15:48;3.92;;;1.40;;
8187;SDS011;4135;49.184;9.722;2022-08-04T12:18:44;1.65;;;1.25;;
8187;SDS011;4135;49.184;9.722;2022-08-04T12:24:04;1.88;;;1.30;;
8187;SDS011;4135;49.184;9.722;2022-08-04T12:26:43;4.25;;;2.15;;
8187;SDS011;4135;49.184;9.722;2022-08-04T12:29:21;1.50;;;1.48;;
8187;SDS011;4135;49.184;9.722;2022-08-04T12:31:57;2.20;;;1.40;;
8187;SDS011;4135;49.184;9.722;2022-08-04T12:40:02;4.85;;;2.00;;
8187;SDS011;4135;49.184;9.722;2022-08-04T12:43:37;5.80;;;2.20;;
8187;SDS011;4135;49.184;9.722;2022-08-04T12:45:54;6.25;;;2.20;;
8187;SDS011;4135;49.184;9.722;2022-08-04T12:48:27;8.25;;;2.55;;
8187;SDS011;4135;49.184;9.722;2022-08-04T12:50:58;7.20;;;2.88;;
8187;SDS011;4135;49.184;9.722;2022-08-04T12:53:35;6.60;;;2.05;;
8187;SDS011;4135;49.184;9.722;2022-08-04T12:56:08;4.70;;;2.80;;
8187;SDS011;4135;49.184;9.722;2022-08-04T12:58:43;5.75;;;2.70;;
8187;SDS011;4135;49.184;9.722;2022-08-04T13:01:21;5.45;;;3.10;;
8187;SDS011;4135;49.184;9.722;2022-08-04T13:03:53;4.50;;;2.45;;
8187;SDS011;4135;49.184;9.722;2022-08-04T13:06:27;3.67;;;2.13;;
8187;SDS011;4135;49.184;9.722;2022-08-04T13:09:03;6.05;;;2.55;;
8187;SDS011;4135;49.184;9.722;2022-08-04T13:11:42;7.20;;;3.10;;
8187;SDS011;4135;49.184;9.722;2022-08-04T13:14:17;6.63;;;3.15;;
8187;SDS011;4135;49.184;9.722;2022-08-04T13:16:55;6.97;;;2.78;;
8187;SDS011;4135;49.184;9.722;2022-08-04T13:19:29;7.18;;;2.70;;
8187;SDS011;4135;49.184;9.722;2022-08-04T13:21:59;8.10;;;2.53;;
8187;SDS011;4135;49.184;9.722;2022-08-04T13:24:30;4.22;;;2.10;;
8187;SDS011;4135;49.184;9.722;2022-08-04T13:27:03;6.00;;;3.33;;
8187;SDS011;4135;49.184;9.722;2022-08-04T13:29:40;3.88;;;2.55;;
8187;SDS011;4135;49.184;9.722;2022-08-04T13:32:15;6.15;;;2.63;;
8187;SDS011;4135;49.184;9.722;2022-08-04T13:34:46;2.75;;;1.83;;
8187;SDS011;4135;49.184;9.722;2022-08-04T13:37:21;3.63;;;2.20;;
8187;SDS011;4135;49.184;9.722;2022-08-04T13:39:54;3.28;;;2.08;;
8187;SDS011;4135;49.184;9.722;2022-08-04T13:42:25;2.47;;;1.83;;
8187;SDS011;4135;49.184;9.722;2022-08-04T13:44:57;1.95;;;1.50;;
8187;SDS011;4135;49.184;9.722;2022-08-04T13:47:35;4.53;;;1.70;;
8187;SDS011;4135;49.184;9.722;2022-08-04T13:53:00;1.70;;;1.38;;
8187;SDS011;4135;49.184;9.722;2022-08-04T13:55:34;3.08;;;1.70;;
8187;SDS011;4135;49.184;9.722;2022-08-04T13:58:18;2.22;;;1.80;;
8187;SDS011;4135;49.184;9.722;2022-08-04T14:01:04;6.45;;;1.52;;
8187;SDS011;4135;49.184;9.722;2022-08-04T14:06:17;2.78;;;1.58;;
8187;SDS011;4135;49.184;9.722;2022-08-04T14:08:54;2.35;;;1.75;;
8187;SDS011;4135;49.184;9.722;2022-08-04T14:11:38;3.53;;;1.58;;
8187;SDS011;4135;49.184;9.722;2022-08-04T14:14:43;4.43;;;1.52;;
8187;SDS011;4135;49.184;9.722;2022-08-04T14:17:14;2.60;;;1.90;;
8187;SDS011;4135;49.184;9.722;2022-08-04T14:22:26;9.73;;;1.77;;
8187;SDS011;4135;49.184;9.722;2022-08-04T14:30:32;2.05;;;1.50;;
8187;SDS011;4135;49.184;9.722;2022-08-04T14:35:37;3.30;;;2.30;;
8187;SDS011;4135;49.184;9.722;2022-08-04T14:38:08;3.08;;;1.92;;
8187;SDS011;4135;49.184;9.722;2022-08-04T14:40:40;2.97;;;1.75;;
8187;SDS011;4135;49.184;9.722;2022-08-04T14:43:10;4.53;;;2.10;;
8187;SDS011;4135;49.184;9.722;2022-08-04T14:45:47;1.92;;;1.75;;
8187;SDS011;4135;49.184;9.722;2022-08-04T14:48:22;3.55;;;1.85;;
8187;SDS011;4135;49.184;9.722;2022-08-04T14:50:51;2.92;;;1.80;;
8187;SDS011;4135;49.184;9.722;2022-08-04T14:53:22;4.18;;;2.50;;
8187;SDS011;4135;49.184;9.722;2022-08-04T14:55:59;2.70;;;1.77;;
8187;SDS011;4135;49.184;9.722;2022-08-04T14:58:30;2.55;;;1.98;;
8187;SDS011;4135;49.184;9.722;2022-08-04T15:01:02;1.27;;;1.20;;
8187;SDS011;4135;49.184;9.722;2022-08-04T15:03:33;2.30;;;1.73;;
8187;SDS011;4135;49.184;9.722;2022-08-04T15:06:03;3.08;;;1.55;;
8187;SDS011;4135;49.184;9.722;2022-08-04T15:08:33;1.83;;;1.80;;
8187;SDS011;4135;49.184;9.722;2022-08-04T15:11:03;3.10;;;1.83;;
8187;SDS011;4135;49.184;9.722;2022-08-04T15:13:32;2.97;;;1.92;;
8187;SDS011;4135;49.184;9.722;2022-08-04T15:16:02;3.15;;;1.80;;
8187;SDS011;4135;49.184;9.722;2022-08-04T15:18:32;2.47;;;1.92;;
8187;SDS011;4135;49.184;9.722;2022-08-04T15:21:03;3.08;;;1.70;;
8187;SDS011;4135;49.184;9.722;2022-08-04T15:23:33;4.47;;;1.90;;
8187;SDS011;4135;49.184;9.722;2022-08-04T15:26:03;1.88;;;1.73;;
8187;SDS011;4135;49.184;9.722;2022-08-04T15:28:37;2.78;;;1.80;;
8187;SDS011;4135;49.184;9.722;2022-08-04T15:31:10;3.45;;;2.20;;
8187;SDS011;4135;49.184;9.722;2022-08-04T15:33:40;1.73;;;1.52;;
8187;SDS011;4135;49.184;9.722;2022-08-04T15:39:05;4.95;;;2.10;;
8187;SDS011;4135;49.184;9.722;2022-08-04T15:47:19;2.63;;;1.35;;
8187;SDS011;4135;49.184;9.722;2022-08-04T15:58:25;1.27;;;0.90;;
8187;SDS011;4135;49.184;9.722;2022-08-04T16:01:15;3.83;;;1.70;;
8187;SDS011;4135;49.184;9.722;2022-08-04T16:19:03;1.50;;;1.20;;
8187;SDS011;4135;49.184;9.722;2022-08-04T16:21:34;1.27;;;1.20;;
8187;SDS011;4135;49.184;9.722;2022-08-04T16:24:16;4.20;;;1.40;;
8187;SDS011;4135;49.184;9.722;2022-08-04T16:26:48;2.53;;;1.75;;
8187;SDS011;4135;49.184;9.722;2022-08-04T16:34:57;3.85;;;1.52;;
8187;SDS011;4135;49.184;9.722;2022-08-04T16:37:33;5.15;;;1.38;;
8187;SDS011;4135;49.184;9.722;2022-08-04T16:40:25;2.63;;;1.50;;
8187;SDS011;4135;49.184;9.722;2022-08-04T16:43:09;2.70;;;1.10;;
8187;SDS011;4135;49.184;9.722;2022-08-04T16:48:22;3.13;;;1.67;;
8187;SDS011;4135;49.184;9.722;2022-08-04T16:50:59;2.15;;;1.30;;
8187;SDS011;4135;49.184;9.722;2022-08-04T16:53:38;1.60;;;1.25;;
8187;SDS011;4135;49.184;9.722;2022-08-04T16:56:12;1.55;;;1.52;;
8187;SDS011;4135;49.184;9.722;2022-08-04T16:58:43;2.80;;;1.58;;
8187;SDS011;4135;49.184;9.722;2022-08-04T17:01:14;1.40;;;1.35;;
8187;SDS011;4135;49.184;9.722;2022-08-04T17:03:50;2.17;;;1.48;;
8187;SDS011;4135;49.184;9.722;2022-08-04T17:06:20;1.20;;;1.10;;
8187;SDS011;4135;49.184;9.722;2022-08-04T17:08:51;2.38;;;1.67;;
8187;SDS011;4135;49.184;9.722;2022-08-04T17:11:21;4.53;;;1.92;;
8187;SDS011;4135;49.184;9.722;2022-08-04T17:14:00;3.15;;;1.67;;
8187;SDS011;4135;49.184;9.722;2022-08-04T17:16:30;1.98;;;1.15;;
8187;SDS011;4135;49.184;9.722;2022-08-04T17:19:09;1.10;;;1.05;;
8187;SDS011;4135;49.184;9.722;2022-08-04T17:21:39;1.17;;;1.10;;
8187;SDS011;4135;49.184;9.722;2022-08-04T17:24:08;2.40;;;1.70;;
8187;SDS011;4135;49.184;9.722;2022-08-04T17:26:38;3.45;;;1.75;;
8187;SDS011;4135;49.184;9.722;2022-08-04T17:29:08;1.35;;;1.25;;
8187;SDS011;4135;49.184;9.722;2022-08-04T17:31:38;2.03;;;1.33;;
8187;SDS011;4135;49.184;9.722;2022-08-04T17:34:09;2.40;;;1.27;;
8187;SDS011;4135;49.184;9.722;2022-08-04T17:36:40;0.85;;;0.80;;
8187;SDS011;4135;49.184;9.722;2022-08-04T17:39:12;1.38;;;1.30;;
8187;SDS011;4135;49.184;9.722;2022-08-04T17:41:53;1.50;;;1.45;;
8187;SDS011;4135;49.184;9.722;2022-08-04T17:44:37;1.05;;;1.00;;
8187;SDS011;4135;49.184;9.722;2022-08-04T17:47:16;1.52;;;1.25;;
8187;SDS011;4135;49.184;9.722;2022-08-04T17:49:49;1.45;;;1.38;;
8187;SDS011;4135;49.184;9.722;2022-08-04T17:52:19;1.38;;;0.98;;
8187;SDS011;4135;49.184;9.722;2022-08-04T17:54:57;1.63;;;1.30;;
8187;SDS011;4135;49.184;9.722;2022-08-04T17:57:27;2.40;;;1.20;;
8187;SDS011;4135;49.184;9.722;2022-08-04T17:59:57;1.27;;;1.20;;
8187;SDS011;4135;49.184;9.722;2022-08-04T18:02:28;1.77;;;1.55;;
8187;SDS011;4135;49.184;9.722;2022-08-04T18:04:59;1.95;;;1.38;;
8187;SDS011;4135;49.184;9.722;2022-08-04T18:07:33;1.13;;;1.10;;
8187;SDS011;4135;49.184;9.722;2022-08-04T18:10:05;7.57;;;1.75;;
8187;SDS011;4135;49.184;9.722;2022-08-04T18:12:35;7.13;;;1.38;;
8187;SDS011;4135;49.184;9.722;2022-08-04T18:15:07;1.40;;;1.33;;
8187;SDS011;4135;49.184;9.722;2022-08-04T18:17:50;1.75;;;1.23;;
8187;SDS011;4135;49.184;9.722;2022-08-04T18:20:23;1.50;;;1.40;;
8187;SDS011;4135;49.184;9.722;2022-08-04T18:22:53;3.08;;;1.45;;
8187;SDS011;4135;49.184;9.722;2022-08-04T18:25:22;2.83;;;1.67;;
8187;SDS011;4135;49.184;9.722;2022-08-04T18:27:53;3.42;;;1.60;;
8187;SDS011;4135;49.184;9.722;2022-08-04T18:30:25;2.63;;;1.30;;
8187;SDS011;4135;49.184;9.722;2022-08-04T18:32:57;2.28;;;1.63;;
8187;SDS011;4135;49.184;9.722;2022-08-04T18:35:27;1.92;;;1.77;;
8187;SDS011;4135;49.184;9.722;2022-08-04T18:37:57;2.15;;;1.40;;
8187;SDS011;4135;49.184;9.722;2022-08-04T18:40:27;2.90;;;1.70;;
8187;SDS011;4135;49.184;9.722;2022-08-04T18:42:57;1.67;;;1.20;;
8187;SDS011;4135;49.184;9.722;2022-08-04T18:45:26;1.83;;;1.45;;
8187;SDS011;4135;49.184;9.722;2022-08-04T18:47:56;1.70;;;1.60;;
8187;SDS011;4135;49.184;9.722;2022-08-04T18:50:26;2.85;;;1.60;;
8187;SDS011;4135;49.184;9.722;2022-08-04T18:52:55;2.50;;;1.50;;
8187;SDS011;4135;49.184;9.722;2022-08-04T18:55:27;1.52;;;1.10;;
8187;SDS011;4135;49.184;9.722;2022-08-04T18:57:57;1.73;;;1.30;;
8187;SDS011;4135;49.184;9.722;2022-08-04T19:00:26;6.60;;;1.63;;
8187;SDS011;4135;49.184;9.722;2022-08-04T19:02:56;2.30;;;1.42;;
8187;SDS011;4135;49.184;9.722;2022-08-04T19:05:25;1.58;;;1.45;;
8187;SDS011;4135;49.184;9.722;2022-08-04T19:07:55;1.95;;;1.90;;
8187;SDS011;4135;49.184;9.722;2022-08-04T19:10:25;2.33;;;1.83;;
8187;SDS011;4135;49.184;9.722;2022-08-04T19:12:54;2.95;;;1.73;;
8187;SDS011;4135;49.184;9.722;2022-08-04T19:15:23;1.85;;;1.75;;
8187;SDS011;4135;49.184;9.722;2022-08-04T19:17:56;4.03;;;1.95;;
8187;SDS011;4135;49.184;9.722;2022-08-04T19:20:26;3.38;;;1.58;;
8187;SDS011;4135;49.184;9.722;2022-08-04T19:22:56;3.17;;;2.00;;
8187;SDS011;4135;49.184;9.722;2022-08-04T19:25:26;2.38;;;1.90;;
8187;SDS011;4135;49.184;9.722;2022-08-04T19:27:55;2.13;;;1.95;;
8187;SDS011;4135;49.184;9.722;2022-08-04T19:30:25;5.63;;;2.00;;
8187;SDS011;4135;49.184;9.722;2022-08-04T19:32:54;5.65;;;2.20;;
8187;SDS011;4135;49.184;9.722;2022-08-04T19:35:24;2.25;;;1.77;;
8187;SDS011;4135;49.184;9.722;2022-08-04T19:37:53;3.13;;;2.25;;
8187;SDS011;4135;49.184;9.722;2022-08-04T19:40:23;2.13;;;1.63;;
8187;SDS011;4135;49.184;9.722;2022-08-04T19:42:53;5.30;;;1.77;;
8187;SDS011;4135;49.184;9.722;2022-08-04T19:45:22;6.30;;;2.20;;
8187;SDS011;4135;49.184;9.722;2022-08-04T19:47:52;1.55;;;1.30;;
8187;SDS011;4135;49.184;9.722;2022-08-04T19:50:21;2.50;;;1.90;;
8187;SDS011;4135;49.184;9.722;2022-08-04T19:52:51;4.18;;;2.13;;
8187;SDS011;4135;49.184;9.722;2022-08-04T19:55:22;8.15;;;2.17;;
8187;SDS011;4135;49.184;9.722;2022-08-04T19:57:52;2.83;;;2.03;;
8187;SDS011;4135;49.184;9.722;2022-08-04T20:00:21;5.97;;;2.20;;
8187;SDS011;4135;49.184;9.722;2022-08-04T20:02:51;4.47;;;2.40;;
8187;SDS011;4135;49.184;9.722;2022-08-04T20:05:20;2.42;;;1.92;;
8187;SDS011;4135;49.184;9.722;2022-08-04T20:07:50;4.45;;;2.50;;
8187;SDS011;4135;49.184;9.722;2022-08-04T20:10:20;3.70;;;1.85;;
8187;SDS011;4135;49.184;9.722;2022-08-04T20:12:49;5.05;;;1.95;;
8187;SDS011;4135;49.184;9.722;2022-08-04T20:15:19;6.80;;;2.58;;
8187;SDS011;4135;49.184;9.722;2022-08-04T20:17:48;3.95;;;2.50;;
8187;SDS011;4135;49.184;9.722;2022-08-04T20:20:18;2.85;;;2.15;;
8187;SDS011;4135;49.184;9.722;2022-08-04T20:22:48;2.63;;;1.75;;
8187;SDS011;4135;49.184;9.722;2022-08-04T20:25:17;4.60;;;2.30;;
8187;SDS011;4135;49.184;9.722;2022-08-04T20:27:47;4.40;;;2.30;;
8187;SDS011;4135;49.184;9.722;2022-08-04T20:30:17;4.05;;;2.95;;
8187;SDS011;4135;49.184;9.722;2022-08-04T20:32:46;3.95;;;2.97;;
8187;SDS011;4135;49.184;9.722;2022-08-04T20:35:18;2.20;;;2.00;;
8187;SDS011;4135;49.184;9.722;2022-08-04T20:37:54;3.42;;;2.28;;
8187;SDS011;4135;49.184;9.722;2022-08-04T20:40:24;7.22;;;2.95;;
8187;SDS011;4135;49.184;9.722;2022-08-04T20:42:54;5.40;;;2.72;;
8187;SDS011;4135;49.184;9.722;2022-08-04T20:45:23;4.68;;;2.25;;
8187;SDS011;4135;49.184;9.722;2022-08-04T20:47:53;4.90;;;2.75;;
8187;SDS011;4135;49.184;9.722;2022-08-04T20:50:23;4.10;;;2.95;;
8187;SDS011;4135;49.184;9.722;2022-08-04T20:52:52;8.52;;;3.38;;
8187;SDS011;4135;49.184;9.722;2022-08-04T20:55:22;6.60;;;2.97;;
8187;SDS011;4135;49.184;9.722;2022-08-04T20:57:51;3.85;;;2.45;;